sensor_id;sensor_type;location;lat;lon;timestamp;P1;durP1;ratioP1;P2;durP2;ratioP2
64235;SDS011;50564;47.402;9.740;2023-03-01T00:00:05;27.55;;;17.80;;
64235;SDS011;50564;47.402;9.740;2023-03-01T00:05:11;25.35;;;17.60;;
64235;SDS011;50564;47.402;9.740;2023-03-01T00:10:12;27.33;;;17.23;;
64235;SDS011;50564;47.402;9.740;2023-03-01T00:15:13;26.10;;;18.15;;
64235;SDS011;50564;47.402;9.740;2023-03-01T00:20:13;27.83;;;18.30;;
64235;SDS011;50564;47.402;9.740;2023-03-01T00:25:14;27.83;;;18.38;;
64235;SDS011;50564;47.402;9.740;2023-03-01T00:30:15;24.63;;;14.98;;
64235;SDS011;50564;47.402;9.740;2023-03-01T00:35:16;22.83;;;14.57;;
64235;SDS011;50564;47.402;9.740;2023-03-01T00:40:17;18.98;;;13.07;;
64235;SDS011;50564;47.402;9.740;2023-03-01T00:45:17;17.20;;;12.27;;
64235;SDS011;50564;47.402;9.740;2023-03-01T00:50:18;19.10;;;12.23;;
64235;SDS011;50564;47.402;9.740;2023-03-01T00:55:19;20.65;;;12.52;;
64235;SDS011;50564;47.402;9.740;2023-03-01T01:00:20;16.50;;;11.00;;
64235;SDS011;50564;47.402;9.740;2023-03-01T01:05:22;17.38;;;11.18;;
64235;SDS011;50564;47.402;9.740;2023-03-01T01:10:23;19.83;;;12.38;;
64235;SDS011;50564;47.402;9.740;2023-03-01T01:15:23;16.77;;;11.00;;
64235;SDS011;50564;47.402;9.740;2023-03-01T01:20:24;20.63;;;12.20;;
64235;SDS011;50564;47.402;9.740;2023-03-01T01:25:24;19.50;;;12.45;;
64235;SDS011;50564;47.402;9.740;2023-03-01T01:30:25;17.48;;;11.68;;
64235;SDS011;50564;47.402;9.740;2023-03-01T01:35:27;19.52;;;12.48;;
64235;SDS011;50564;47.402;9.740;2023-03-01T01:40:28;18.67;;;11.75;;
64235;SDS011;50564;47.402;9.740;2023-03-01T01:45:31;19.58;;;11.75;;
64235;SDS011;50564;47.402;9.740;2023-03-01T01:50:33;18.27;;;11.48;;
64235;SDS011;50564;47.402;9.740;2023-03-01T01:55:40;18.25;;;11.52;;
64235;SDS011;50564;47.402;9.740;2023-03-01T02:00:43;20.73;;;13.38;;
64235;SDS011;50564;47.402;9.740;2023-03-01T02:05:49;18.55;;;11.65;;
64235;SDS011;50564;47.402;9.740;2023-03-01T02:10:52;22.83;;;13.63;;
64235;SDS011;50564;47.402;9.740;2023-03-01T02:15:54;17.88;;;11.95;;
64235;SDS011;50564;47.402;9.740;2023-03-01T02:21:19;20.05;;;12.88;;
64235;SDS011;50564;47.402;9.740;2023-03-01T02:31:41;16.73;;;10.68;;
64235;SDS011;50564;47.402;9.740;2023-03-01T02:36:53;16.63;;;10.88;;
64235;SDS011;50564;47.402;9.740;2023-03-01T02:41:56;17.60;;;10.75;;
64235;SDS011;50564;47.402;9.740;2023-03-01T02:47:00;16.67;;;11.00;;
64235;SDS011;50564;47.402;9.740;2023-03-01T02:57:08;26.73;;;17.58;;
64235;SDS011;50564;47.402;9.740;2023-03-01T03:02:20;24.23;;;15.68;;
64235;SDS011;50564;47.402;9.740;2023-03-01T03:07:39;28.02;;;17.48;;
64235;SDS011;50564;47.402;9.740;2023-03-01T03:12:41;20.67;;;13.15;;
64235;SDS011;50564;47.402;9.740;2023-03-01T03:17:42;19.83;;;12.27;;
64235;SDS011;50564;47.402;9.740;2023-03-01T03:22:43;18.90;;;12.23;;
64235;SDS011;50564;47.402;9.740;2023-03-01T03:27:44;19.55;;;12.18;;
64235;SDS011;50564;47.402;9.740;2023-03-01T03:32:47;20.05;;;11.48;;
64235;SDS011;50564;47.402;9.740;2023-03-01T03:37:53;18.45;;;11.55;;
64235;SDS011;50564;47.402;9.740;2023-03-01T03:43:04;19.65;;;12.13;;
64235;SDS011;50564;47.402;9.740;2023-03-01T03:48:06;17.30;;;11.82;;
64235;SDS011;50564;47.402;9.740;2023-03-01T03:53:10;19.20;;;12.50;;
64235;SDS011;50564;47.402;9.740;2023-03-01T03:58:12;21.08;;;12.35;;
64235;SDS011;50564;47.402;9.740;2023-03-01T04:03:13;21.58;;;12.95;;
64235;SDS011;50564;47.402;9.740;2023-03-01T04:08:16;19.95;;;12.48;;
64235;SDS011;50564;47.402;9.740;2023-03-01T04:13:20;22.88;;;13.75;;
64235;SDS011;50564;47.402;9.740;2023-03-01T04:18:23;19.95;;;12.30;;
64235;SDS011;50564;47.402;9.740;2023-03-01T04:23:25;23.42;;;13.20;;
64235;SDS011;50564;47.402;9.740;2023-03-01T04:28:26;22.98;;;14.40;;
64235;SDS011;50564;47.402;9.740;2023-03-01T04:33:29;22.35;;;14.15;;
64235;SDS011;50564;47.402;9.740;2023-03-01T04:38:29;23.65;;;13.15;;
64235;SDS011;50564;47.402;9.740;2023-03-01T04:43:30;23.50;;;13.68;;
64235;SDS011;50564;47.402;9.740;2023-03-01T04:48:30;22.65;;;14.15;;
64235;SDS011;50564;47.402;9.740;2023-03-01T04:53:32;24.45;;;14.77;;
64235;SDS011;50564;47.402;9.740;2023-03-01T04:58:33;21.40;;;12.18;;
64235;SDS011;50564;47.402;9.740;2023-03-01T05:03:33;22.73;;;14.15;;
64235;SDS011;50564;47.402;9.740;2023-03-01T05:08:34;23.90;;;13.55;;
64235;SDS011;50564;47.402;9.740;2023-03-01T05:13:37;20.58;;;12.27;;
64235;SDS011;50564;47.402;9.740;2023-03-01T05:18:39;20.92;;;12.63;;
64235;SDS011;50564;47.402;9.740;2023-03-01T05:23:40;22.80;;;13.90;;
64235;SDS011;50564;47.402;9.740;2023-03-01T05:28:41;24.42;;;13.80;;
64235;SDS011;50564;47.402;9.740;2023-03-01T05:33:41;24.05;;;13.45;;
64235;SDS011;50564;47.402;9.740;2023-03-01T05:38:43;20.73;;;13.63;;
64235;SDS011;50564;47.402;9.740;2023-03-01T05:43:44;25.80;;;15.55;;
64235;SDS011;50564;47.402;9.740;2023-03-01T05:48:45;21.55;;;13.15;;
64235;SDS011;50564;47.402;9.740;2023-03-01T05:53:45;20.40;;;11.55;;
64235;SDS011;50564;47.402;9.740;2023-03-01T05:58:47;22.15;;;14.23;;
64235;SDS011;50564;47.402;9.740;2023-03-01T06:03:48;21.77;;;12.90;;
64235;SDS011;50564;47.402;9.740;2023-03-01T06:08:49;21.85;;;13.05;;
64235;SDS011;50564;47.402;9.740;2023-03-01T06:13:50;19.55;;;13.15;;
64235;SDS011;50564;47.402;9.740;2023-03-01T06:18:51;21.23;;;13.18;;
64235;SDS011;50564;47.402;9.740;2023-03-01T06:23:51;21.17;;;12.77;;
64235;SDS011;50564;47.402;9.740;2023-03-01T06:28:52;22.15;;;12.95;;
64235;SDS011;50564;47.402;9.740;2023-03-01T06:33:53;21.60;;;13.13;;
64235;SDS011;50564;47.402;9.740;2023-03-01T06:38:54;23.83;;;13.65;;
64235;SDS011;50564;47.402;9.740;2023-03-01T06:43:54;21.10;;;13.18;;
64235;SDS011;50564;47.402;9.740;2023-03-01T06:48:55;19.63;;;12.18;;
64235;SDS011;50564;47.402;9.740;2023-03-01T06:53:56;26.50;;;14.40;;
64235;SDS011;50564;47.402;9.740;2023-03-01T06:58:56;20.83;;;12.85;;
64235;SDS011;50564;47.402;9.740;2023-03-01T07:03:57;22.63;;;13.52;;
64235;SDS011;50564;47.402;9.740;2023-03-01T07:08:58;23.25;;;12.73;;
64235;SDS011;50564;47.402;9.740;2023-03-01T07:13:58;19.98;;;12.30;;
64235;SDS011;50564;47.402;9.740;2023-03-01T07:19:00;20.40;;;12.68;;
64235;SDS011;50564;47.402;9.740;2023-03-01T07:24:00;21.63;;;13.55;;
64235;SDS011;50564;47.402;9.740;2023-03-01T07:29:02;21.75;;;13.18;;
64235;SDS011;50564;47.402;9.740;2023-03-01T07:34:03;21.35;;;12.50;;
64235;SDS011;50564;47.402;9.740;2023-03-01T07:39:04;19.50;;;11.77;;
64235;SDS011;50564;47.402;9.740;2023-03-01T07:44:05;19.25;;;11.75;;
64235;SDS011;50564;47.402;9.740;2023-03-01T07:49:06;18.83;;;11.88;;
64235;SDS011;50564;47.402;9.740;2023-03-01T07:54:07;20.25;;;12.63;;
64235;SDS011;50564;47.402;9.740;2023-03-01T07:59:07;21.75;;;13.60;;
64235;SDS011;50564;47.402;9.740;2023-03-01T08:04:08;23.38;;;14.38;;
64235;SDS011;50564;47.402;9.740;2023-03-01T08:09:09;24.80;;;14.82;;
64235;SDS011;50564;47.402;9.740;2023-03-01T08:14:09;20.70;;;13.25;;
64235;SDS011;50564;47.402;9.740;2023-03-01T08:19:13;21.42;;;13.40;;
64235;SDS011;50564;47.402;9.740;2023-03-01T08:24:13;20.35;;;13.38;;
64235;SDS011;50564;47.402;9.740;2023-03-01T08:29:14;21.08;;;13.80;;
64235;SDS011;50564;47.402;9.740;2023-03-01T08:34:15;21.30;;;13.50;;
64235;SDS011;50564;47.402;9.740;2023-03-01T08:39:17;22.20;;;14.07;;
64235;SDS011;50564;47.402;9.740;2023-03-01T08:44:19;26.60;;;15.73;;
64235;SDS011;50564;47.402;9.740;2023-03-01T08:49:21;23.60;;;14.80;;
64235;SDS011;50564;47.402;9.740;2023-03-01T08:54:21;25.25;;;16.17;;
64235;SDS011;50564;47.402;9.740;2023-03-01T08:59:22;22.27;;;14.43;;
64235;SDS011;50564;47.402;9.740;2023-03-01T09:04:23;24.08;;;15.70;;
64235;SDS011;50564;47.402;9.740;2023-03-01T09:09:23;27.50;;;16.55;;
64235;SDS011;50564;47.402;9.740;2023-03-01T09:14:24;23.48;;;15.20;;
64235;SDS011;50564;47.402;9.740;2023-03-01T09:19:25;26.65;;;16.33;;
64235;SDS011;50564;47.402;9.740;2023-03-01T09:24:26;21.98;;;14.70;;
64235;SDS011;50564;47.402;9.740;2023-03-01T09:29:26;23.83;;;14.98;;
64235;SDS011;50564;47.402;9.740;2023-03-01T09:34:27;21.48;;;15.35;;
64235;SDS011;50564;47.402;9.740;2023-03-01T09:39:28;21.67;;;14.30;;
64235;SDS011;50564;47.402;9.740;2023-03-01T09:50:18;20.88;;;14.77;;
64235;SDS011;50564;47.402;9.740;2023-03-01T09:55:26;21.45;;;14.30;;
64235;SDS011;50564;47.402;9.740;2023-03-01T10:00:39;22.00;;;14.32;;
64235;SDS011;50564;47.402;9.740;2023-03-01T10:11:02;22.42;;;14.68;;
64235;SDS011;50564;47.402;9.740;2023-03-01T10:16:17;26.05;;;15.88;;
64235;SDS011;50564;47.402;9.740;2023-03-01T10:21:21;23.27;;;15.23;;
64235;SDS011;50564;47.402;9.740;2023-03-01T10:26:36;22.13;;;14.60;;
64235;SDS011;50564;47.402;9.740;2023-03-01T10:31:48;21.08;;;14.65;;
64235;SDS011;50564;47.402;9.740;2023-03-01T10:36:51;21.38;;;14.02;;
64235;SDS011;50564;47.402;9.740;2023-03-01T10:41:55;23.05;;;15.85;;
64235;SDS011;50564;47.402;9.740;2023-03-01T10:47:00;21.13;;;14.77;;
64235;SDS011;50564;47.402;9.740;2023-03-01T10:52:11;23.00;;;14.98;;
64235;SDS011;50564;47.402;9.740;2023-03-01T10:57:29;21.30;;;15.05;;
64235;SDS011;50564;47.402;9.740;2023-03-01T11:02:38;21.23;;;14.05;;
64235;SDS011;50564;47.402;9.740;2023-03-01T11:07:49;20.60;;;13.90;;
64235;SDS011;50564;47.402;9.740;2023-03-01T11:13:06;22.65;;;15.13;;
64235;SDS011;50564;47.402;9.740;2023-03-01T11:18:22;22.98;;;15.60;;
64235;SDS011;50564;47.402;9.740;2023-03-01T11:23:23;28.58;;;17.95;;
64235;SDS011;50564;47.402;9.740;2023-03-01T11:28:24;23.38;;;14.55;;
64235;SDS011;50564;47.402;9.740;2023-03-01T11:33:47;20.10;;;13.55;;
64235;SDS011;50564;47.402;9.740;2023-03-01T11:38:50;25.55;;;14.55;;
64235;SDS011;50564;47.402;9.740;2023-03-01T12:05:18;19.85;;;13.45;;
64235;SDS011;50564;47.402;9.740;2023-03-01T12:47:46;24.13;;;14.15;;
64235;SDS011;50564;47.402;9.740;2023-03-01T12:53:20;21.45;;;14.90;;
64235;SDS011;50564;47.402;9.740;2023-03-01T12:58:34;23.50;;;16.35;;
64235;SDS011;50564;47.402;9.740;2023-03-01T13:08:49;24.75;;;14.93;;
64235;SDS011;50564;47.402;9.740;2023-03-01T13:19:23;23.20;;;14.32;;
64235;SDS011;50564;47.402;9.740;2023-03-01T13:24:35;25.60;;;15.63;;
64235;SDS011;50564;47.402;9.740;2023-03-01T13:34:54;24.35;;;16.42;;
64235;SDS011;50564;47.402;9.740;2023-03-01T13:39:55;25.05;;;16.25;;
64235;SDS011;50564;47.402;9.740;2023-03-01T13:44:57;29.10;;;19.52;;
64235;SDS011;50564;47.402;9.740;2023-03-01T13:49:59;23.02;;;16.00;;
64235;SDS011;50564;47.402;9.740;2023-03-01T13:55:01;23.48;;;15.85;;
64235;SDS011;50564;47.402;9.740;2023-03-01T14:00:04;21.10;;;14.82;;
64235;SDS011;50564;47.402;9.740;2023-03-01T14:05:08;20.75;;;14.50;;
64235;SDS011;50564;47.402;9.740;2023-03-01T14:10:11;22.30;;;15.05;;
64235;SDS011;50564;47.402;9.740;2023-03-01T14:15:15;19.85;;;15.35;;
64235;SDS011;50564;47.402;9.740;2023-03-01T14:20:19;23.05;;;15.18;;
64235;SDS011;50564;47.402;9.740;2023-03-01T14:25:29;27.30;;;16.45;;
64235;SDS011;50564;47.402;9.740;2023-03-01T14:30:36;32.35;;;16.27;;
64235;SDS011;50564;47.402;9.740;2023-03-01T14:35:39;23.70;;;16.60;;
64235;SDS011;50564;47.402;9.740;2023-03-01T14:40:39;23.52;;;15.90;;
64235;SDS011;50564;47.402;9.740;2023-03-01T14:45:40;27.50;;;17.98;;
64235;SDS011;50564;47.402;9.740;2023-03-01T14:50:47;20.27;;;13.17;;
64235;SDS011;50564;47.402;9.740;2023-03-01T14:55:50;27.33;;;17.52;;
64235;SDS011;50564;47.402;9.740;2023-03-01T15:00:53;30.52;;;17.73;;
64235;SDS011;50564;47.402;9.740;2023-03-01T15:05:56;37.55;;;24.85;;
64235;SDS011;50564;47.402;9.740;2023-03-01T15:10:58;26.02;;;18.48;;
64235;SDS011;50564;47.402;9.740;2023-03-01T15:16:05;26.77;;;17.92;;
64235;SDS011;50564;47.402;9.740;2023-03-01T15:21:17;28.10;;;18.75;;
64235;SDS011;50564;47.402;9.740;2023-03-01T15:26:41;25.48;;;17.38;;
64235;SDS011;50564;47.402;9.740;2023-03-01T15:31:42;26.98;;;18.00;;
64235;SDS011;50564;47.402;9.740;2023-03-01T15:36:44;28.00;;;18.85;;
64235;SDS011;50564;47.402;9.740;2023-03-01T15:41:47;24.52;;;16.85;;
64235;SDS011;50564;47.402;9.740;2023-03-01T15:46:48;27.30;;;17.70;;
64235;SDS011;50564;47.402;9.740;2023-03-01T15:51:49;25.00;;;16.70;;
64235;SDS011;50564;47.402;9.740;2023-03-01T15:56:50;26.65;;;17.52;;
64235;SDS011;50564;47.402;9.740;2023-03-01T16:01:51;24.05;;;16.63;;
64235;SDS011;50564;47.402;9.740;2023-03-01T16:06:52;27.38;;;17.67;;
64235;SDS011;50564;47.402;9.740;2023-03-01T16:11:57;34.00;;;21.50;;
64235;SDS011;50564;47.402;9.740;2023-03-01T16:16:57;23.52;;;16.27;;
64235;SDS011;50564;47.402;9.740;2023-03-01T16:21:58;24.38;;;16.02;;
64235;SDS011;50564;47.402;9.740;2023-03-01T16:26:59;25.45;;;17.13;;
64235;SDS011;50564;47.402;9.740;2023-03-01T16:32:00;27.20;;;18.75;;
64235;SDS011;50564;47.402;9.740;2023-03-01T16:37:01;26.20;;;17.08;;
64235;SDS011;50564;47.402;9.740;2023-03-01T16:42:02;25.35;;;17.10;;
64235;SDS011;50564;47.402;9.740;2023-03-01T16:47:03;24.42;;;17.20;;
64235;SDS011;50564;47.402;9.740;2023-03-01T16:52:04;28.25;;;18.02;;
64235;SDS011;50564;47.402;9.740;2023-03-01T16:57:05;32.47;;;20.90;;
64235;SDS011;50564;47.402;9.740;2023-03-01T17:02:08;25.95;;;17.88;;
64235;SDS011;50564;47.402;9.740;2023-03-01T17:07:14;26.75;;;18.13;;
64235;SDS011;50564;47.402;9.740;2023-03-01T17:12:15;28.50;;;19.35;;
64235;SDS011;50564;47.402;9.740;2023-03-01T17:17:17;28.45;;;17.75;;
64235;SDS011;50564;47.402;9.740;2023-03-01T17:22:18;28.45;;;19.58;;
64235;SDS011;50564;47.402;9.740;2023-03-01T17:27:19;31.63;;;22.80;;
64235;SDS011;50564;47.402;9.740;2023-03-01T17:32:20;30.15;;;17.80;;
64235;SDS011;50564;47.402;9.740;2023-03-01T17:37:21;31.35;;;19.92;;
64235;SDS011;50564;47.402;9.740;2023-03-01T17:42:22;29.15;;;19.58;;
64235;SDS011;50564;47.402;9.740;2023-03-01T17:47:23;30.10;;;19.75;;
64235;SDS011;50564;47.402;9.740;2023-03-01T17:52:24;32.53;;;20.20;;
64235;SDS011;50564;47.402;9.740;2023-03-01T17:57:25;26.10;;;17.67;;
64235;SDS011;50564;47.402;9.740;2023-03-01T18:02:26;31.23;;;19.45;;
64235;SDS011;50564;47.402;9.740;2023-03-01T18:07:28;29.00;;;19.35;;
64235;SDS011;50564;47.402;9.740;2023-03-01T18:12:30;30.25;;;20.60;;
64235;SDS011;50564;47.402;9.740;2023-03-01T18:17:33;37.80;;;22.25;;
64235;SDS011;50564;47.402;9.740;2023-03-01T18:22:34;29.02;;;18.58;;
64235;SDS011;50564;47.402;9.740;2023-03-01T18:27:35;29.92;;;19.02;;
64235;SDS011;50564;47.402;9.740;2023-03-01T18:32:36;44.40;;;27.05;;
64235;SDS011;50564;47.402;9.740;2023-03-01T18:37:39;29.00;;;19.08;;
64235;SDS011;50564;47.402;9.740;2023-03-01T18:42:40;32.53;;;20.60;;
64235;SDS011;50564;47.402;9.740;2023-03-01T18:47:41;32.58;;;23.15;;
64235;SDS011;50564;47.402;9.740;2023-03-01T18:52:42;29.67;;;18.98;;
64235;SDS011;50564;47.402;9.740;2023-03-01T18:57:44;28.38;;;18.17;;
64235;SDS011;50564;47.402;9.740;2023-03-01T19:02:45;29.75;;;19.67;;
64235;SDS011;50564;47.402;9.740;2023-03-01T19:07:46;29.70;;;19.40;;
64235;SDS011;50564;47.402;9.740;2023-03-01T19:12:48;28.73;;;19.27;;
64235;SDS011;50564;47.402;9.740;2023-03-01T19:17:49;33.33;;;21.55;;
64235;SDS011;50564;47.402;9.740;2023-03-01T19:22:50;31.30;;;18.77;;
64235;SDS011;50564;47.402;9.740;2023-03-01T19:27:51;27.63;;;18.92;;
64235;SDS011;50564;47.402;9.740;2023-03-01T19:32:52;29.60;;;19.58;;
64235;SDS011;50564;47.402;9.740;2023-03-01T19:37:54;31.95;;;20.98;;
64235;SDS011;50564;47.402;9.740;2023-03-01T19:42:55;35.28;;;22.48;;
64235;SDS011;50564;47.402;9.740;2023-03-01T19:47:56;29.83;;;19.20;;
64235;SDS011;50564;47.402;9.740;2023-03-01T19:52:57;29.63;;;20.17;;
64235;SDS011;50564;47.402;9.740;2023-03-01T19:57:59;31.08;;;19.55;;
64235;SDS011;50564;47.402;9.740;2023-03-01T20:03:00;28.42;;;18.85;;
64235;SDS011;50564;47.402;9.740;2023-03-01T20:08:04;31.67;;;20.20;;
64235;SDS011;50564;47.402;9.740;2023-03-01T20:13:05;31.48;;;19.95;;
64235;SDS011;50564;47.402;9.740;2023-03-01T20:18:06;34.25;;;21.60;;
64235;SDS011;50564;47.402;9.740;2023-03-01T20:23:08;32.60;;;22.00;;
64235;SDS011;50564;47.402;9.740;2023-03-01T20:28:09;29.70;;;20.90;;
64235;SDS011;50564;47.402;9.740;2023-03-01T20:33:10;33.85;;;21.10;;
64235;SDS011;50564;47.402;9.740;2023-03-01T20:38:12;30.13;;;19.80;;
64235;SDS011;50564;47.402;9.740;2023-03-01T20:43:13;30.58;;;20.38;;
64235;SDS011;50564;47.402;9.740;2023-03-01T20:48:14;31.52;;;20.60;;
64235;SDS011;50564;47.402;9.740;2023-03-01T20:53:15;29.13;;;19.98;;
64235;SDS011;50564;47.402;9.740;2023-03-01T20:58:16;30.50;;;19.92;;
64235;SDS011;50564;47.402;9.740;2023-03-01T21:03:17;31.40;;;19.90;;
64235;SDS011;50564;47.402;9.740;2023-03-01T21:08:18;28.42;;;18.58;;
64235;SDS011;50564;47.402;9.740;2023-03-01T21:13:19;26.88;;;17.30;;
64235;SDS011;50564;47.402;9.740;2023-03-01T21:18:22;31.20;;;18.77;;
64235;SDS011;50564;47.402;9.740;2023-03-01T21:23:23;26.27;;;17.27;;
64235;SDS011;50564;47.402;9.740;2023-03-01T21:28:23;27.40;;;17.38;;
64235;SDS011;50564;47.402;9.740;2023-03-01T21:33:26;30.05;;;19.50;;
64235;SDS011;50564;47.402;9.740;2023-03-01T21:38:31;27.05;;;17.80;;
64235;SDS011;50564;47.402;9.740;2023-03-01T21:43:36;29.40;;;18.75;;
64235;SDS011;50564;47.402;9.740;2023-03-01T21:48:37;31.35;;;19.35;;
64235;SDS011;50564;47.402;9.740;2023-03-01T21:53:39;32.50;;;21.10;;
64235;SDS011;50564;47.402;9.740;2023-03-01T21:58:40;32.50;;;22.08;;
64235;SDS011;50564;47.402;9.740;2023-03-01T22:03:41;28.88;;;19.13;;
64235;SDS011;50564;47.402;9.740;2023-03-01T22:08:49;32.03;;;19.75;;
64235;SDS011;50564;47.402;9.740;2023-03-01T22:13:51;28.58;;;17.50;;
64235;SDS011;50564;47.402;9.740;2023-03-01T22:18:52;28.58;;;18.35;;
64235;SDS011;50564;47.402;9.740;2023-03-01T22:23:54;25.65;;;16.83;;
64235;SDS011;50564;47.402;9.740;2023-03-01T22:28:56;27.48;;;17.13;;
64235;SDS011;50564;47.402;9.740;2023-03-01T22:33:57;28.15;;;18.05;;
64235;SDS011;50564;47.402;9.740;2023-03-01T22:38:59;26.45;;;17.50;;
64235;SDS011;50564;47.402;9.740;2023-03-01T22:44:00;27.88;;;17.80;;
64235;SDS011;50564;47.402;9.740;2023-03-01T22:49:01;27.38;;;17.92;;
64235;SDS011;50564;47.402;9.740;2023-03-01T22:54:04;28.85;;;18.08;;
64235;SDS011;50564;47.402;9.740;2023-03-01T22:59:06;27.33;;;17.60;;
64235;SDS011;50564;47.402;9.740;2023-03-01T23:04:10;25.98;;;17.70;;
64235;SDS011;50564;47.402;9.740;2023-03-01T23:09:11;29.30;;;18.40;;
64235;SDS011;50564;47.402;9.740;2023-03-01T23:14:13;30.40;;;19.48;;
64235;SDS011;50564;47.402;9.740;2023-03-01T23:19:15;30.40;;;20.25;;
64235;SDS011;50564;47.402;9.740;2023-03-01T23:24:16;27.88;;;19.00;;
64235;SDS011;50564;47.402;9.740;2023-03-01T23:29:18;29.02;;;18.65;;
64235;SDS011;50564;47.402;9.740;2023-03-01T23:34:19;31.38;;;20.05;;
64235;SDS011;50564;47.402;9.740;2023-03-01T23:39:20;28.90;;;18.45;;
64235;SDS011;50564;47.402;9.740;2023-03-01T23:44:21;27.42;;;17.98;;
64235;SDS011;50564;47.402;9.740;2023-03-01T23:49:22;27.00;;;17.77;;
64235;SDS011;50564;47.402;9.740;2023-03-01T23:54:23;27.80;;;18.15;;
64235;SDS011;50564;47.402;9.740;2023-03-01T23:59:24;26.55;;;16.33;;
